sensor_id;sensor_type;location;lat;lon;timestamp;P1;durP1;ratioP1;P2;durP2;ratioP2
55756;SDS011;41676;44.610;44.078;2023-07-31T00:00:49;13.00;;;4.13;;
55756;SDS011;41676;44.610;44.078;2023-07-31T00:05:49;13.98;;;4.82;;
55756;SDS011;41676;44.610;44.078;2023-07-31T00:10:53;10.23;;;4.43;;
55756;SDS011;41676;44.610;44.078;2023-07-31T00:20:54;8.30;;;3.85;;
55756;SDS011;41676;44.610;44.078;2023-07-31T00:25:55;7.55;;;3.90;;
55756;SDS011;41676;44.610;44.078;2023-07-31T00:30:56;8.82;;;4.13;;
55756;SDS011;41676;44.610;44.078;2023-07-31T00:35:57;7.63;;;4.47;;
55756;SDS011;41676;44.610;44.078;2023-07-31T00:40:57;8.57;;;4.15;;
55756;SDS011;41676;44.610;44.078;2023-07-31T00:45:58;9.80;;;4.10;;
55756;SDS011;41676;44.610;44.078;2023-07-31T00:50:59;8.43;;;4.43;;
55756;SDS011;41676;44.610;44.078;2023-07-31T00:56:01;7.25;;;4.32;;
55756;SDS011;41676;44.610;44.078;2023-07-31T01:01:02;15.10;;;4.93;;
55756;SDS011;41676;44.610;44.078;2023-07-31T01:06:07;42.00;;;5.78;;
55756;SDS011;41676;44.610;44.078;2023-07-31T01:11:27;43.95;;;5.50;;
55756;SDS011;41676;44.610;44.078;2023-07-31T01:16:29;16.45;;;5.07;;
55756;SDS011;41676;44.610;44.078;2023-07-31T01:21:37;13.18;;;4.07;;
55756;SDS011;41676;44.610;44.078;2023-07-31T01:27:12;33.63;;;5.28;;
55756;SDS011;41676;44.610;44.078;2023-07-31T01:32:18;105.05;;;9.68;;
55756;SDS011;41676;44.610;44.078;2023-07-31T01:37:19;43.47;;;6.10;;
55756;SDS011;41676;44.610;44.078;2023-07-31T01:42:20;98.20;;;9.77;;
55756;SDS011;41676;44.610;44.078;2023-07-31T01:47:21;18.13;;;4.32;;
55756;SDS011;41676;44.610;44.078;2023-07-31T01:52:22;17.13;;;4.70;;
55756;SDS011;41676;44.610;44.078;2023-07-31T01:57:22;77.18;;;7.85;;
55756;SDS011;41676;44.610;44.078;2023-07-31T02:02:23;133.20;;;10.45;;
55756;SDS011;41676;44.610;44.078;2023-07-31T02:07:24;50.60;;;6.00;;
55756;SDS011;41676;44.610;44.078;2023-07-31T02:12:25;13.95;;;4.18;;
55756;SDS011;41676;44.610;44.078;2023-07-31T02:17:25;10.23;;;4.78;;
55756;SDS011;41676;44.610;44.078;2023-07-31T02:22:26;50.42;;;6.72;;
55756;SDS011;41676;44.610;44.078;2023-07-31T02:27:27;30.48;;;5.22;;
55756;SDS011;41676;44.610;44.078;2023-07-31T02:32:28;8.35;;;4.30;;
55756;SDS011;41676;44.610;44.078;2023-07-31T02:37:28;66.22;;;6.18;;
55756;SDS011;41676;44.610;44.078;2023-07-31T02:42:29;127.57;;;12.80;;
55756;SDS011;41676;44.610;44.078;2023-07-31T02:47:30;46.95;;;5.97;;
55756;SDS011;41676;44.610;44.078;2023-07-31T02:52:31;95.82;;;8.88;;
55756;SDS011;41676;44.610;44.078;2023-07-31T02:57:31;123.97;;;10.52;;
55756;SDS011;41676;44.610;44.078;2023-07-31T03:02:32;12.23;;;4.20;;
55756;SDS011;41676;44.610;44.078;2023-07-31T03:07:33;8.50;;;3.85;;
55756;SDS011;41676;44.610;44.078;2023-07-31T03:12:35;9.32;;;4.00;;
55756;SDS011;41676;44.610;44.078;2023-07-31T03:17:36;7.50;;;3.67;;
55756;SDS011;41676;44.610;44.078;2023-07-31T03:22:36;9.68;;;3.70;;
55756;SDS011;41676;44.610;44.078;2023-07-31T03:27:38;36.92;;;4.72;;
55756;SDS011;41676;44.610;44.078;2023-07-31T03:32:38;8.13;;;4.15;;
55756;SDS011;41676;44.610;44.078;2023-07-31T03:37:39;10.13;;;4.55;;
55756;SDS011;41676;44.610;44.078;2023-07-31T03:42:40;29.48;;;7.47;;
55756;SDS011;41676;44.610;44.078;2023-07-31T03:47:40;29.60;;;5.85;;
55756;SDS011;41676;44.610;44.078;2023-07-31T03:52:41;9.65;;;4.60;;
55756;SDS011;41676;44.610;44.078;2023-07-31T03:57:42;18.73;;;6.97;;
55756;SDS011;41676;44.610;44.078;2023-07-31T04:02:43;16.70;;;7.95;;
55756;SDS011;41676;44.610;44.078;2023-07-31T04:07:44;25.85;;;8.82;;
55756;SDS011;41676;44.610;44.078;2023-07-31T04:12:44;16.13;;;6.72;;
55756;SDS011;41676;44.610;44.078;2023-07-31T04:17:45;15.55;;;8.60;;
55756;SDS011;41676;44.610;44.078;2023-07-31T04:22:46;16.85;;;8.75;;
55756;SDS011;41676;44.610;44.078;2023-07-31T04:27:47;20.08;;;10.48;;
55756;SDS011;41676;44.610;44.078;2023-07-31T04:32:48;19.08;;;9.68;;
55756;SDS011;41676;44.610;44.078;2023-07-31T04:37:48;23.10;;;9.25;;
55756;SDS011;41676;44.610;44.078;2023-07-31T04:42:49;10.50;;;5.65;;
55756;SDS011;41676;44.610;44.078;2023-07-31T04:47:50;24.17;;;7.47;;
55756;SDS011;41676;44.610;44.078;2023-07-31T04:52:51;17.73;;;6.00;;
55756;SDS011;41676;44.610;44.078;2023-07-31T04:57:51;26.70;;;5.68;;
55756;SDS011;41676;44.610;44.078;2023-07-31T05:02:52;20.27;;;5.60;;
55756;SDS011;41676;44.610;44.078;2023-07-31T05:07:53;22.58;;;5.03;;
55756;SDS011;41676;44.610;44.078;2023-07-31T05:12:53;21.67;;;4.97;;
55756;SDS011;41676;44.610;44.078;2023-07-31T05:17:54;13.25;;;4.43;;
55756;SDS011;41676;44.610;44.078;2023-07-31T05:22:55;26.05;;;6.13;;
55756;SDS011;41676;44.610;44.078;2023-07-31T05:27:56;15.13;;;6.18;;
55756;SDS011;41676;44.610;44.078;2023-07-31T05:32:56;11.85;;;5.32;;
55756;SDS011;41676;44.610;44.078;2023-07-31T05:37:57;14.75;;;3.83;;
55756;SDS011;41676;44.610;44.078;2023-07-31T05:42:58;9.38;;;3.38;;
55756;SDS011;41676;44.610;44.078;2023-07-31T05:47:59;7.93;;;3.20;;
55756;SDS011;41676;44.610;44.078;2023-07-31T05:52:59;9.52;;;2.10;;
55756;SDS011;41676;44.610;44.078;2023-07-31T05:58:00;4.28;;;1.90;;
55756;SDS011;41676;44.610;44.078;2023-07-31T06:03:01;4.10;;;1.80;;
55756;SDS011;41676;44.610;44.078;2023-07-31T06:08:02;5.00;;;1.70;;
55756;SDS011;41676;44.610;44.078;2023-07-31T06:13:03;3.33;;;1.60;;
55756;SDS011;41676;44.610;44.078;2023-07-31T06:18:04;6.53;;;1.73;;
55756;SDS011;41676;44.610;44.078;2023-07-31T06:23:07;4.07;;;1.85;;
55756;SDS011;41676;44.610;44.078;2023-07-31T06:28:08;4.88;;;2.03;;
55756;SDS011;41676;44.610;44.078;2023-07-31T06:33:09;2.97;;;1.50;;
55756;SDS011;41676;44.610;44.078;2023-07-31T06:38:09;10.10;;;1.73;;
55756;SDS011;41676;44.610;44.078;2023-07-31T06:43:10;4.65;;;1.80;;
55756;SDS011;41676;44.610;44.078;2023-07-31T06:48:11;4.07;;;1.92;;
55756;SDS011;41676;44.610;44.078;2023-07-31T06:53:12;5.10;;;1.60;;
55756;SDS011;41676;44.610;44.078;2023-07-31T06:58:13;6.00;;;1.83;;
55756;SDS011;41676;44.610;44.078;2023-07-31T07:03:13;2.38;;;1.63;;
55756;SDS011;41676;44.610;44.078;2023-07-31T07:08:15;5.50;;;1.90;;
55756;SDS011;41676;44.610;44.078;2023-07-31T07:13:17;5.40;;;1.77;;
55756;SDS011;41676;44.610;44.078;2023-07-31T07:18:18;6.07;;;1.92;;
55756;SDS011;41676;44.610;44.078;2023-07-31T07:23:19;12.95;;;1.75;;
55756;SDS011;41676;44.610;44.078;2023-07-31T07:28:21;13.10;;;2.50;;
55756;SDS011;41676;44.610;44.078;2023-07-31T07:33:21;2.63;;;1.70;;
55756;SDS011;41676;44.610;44.078;2023-07-31T07:38:22;10.50;;;2.17;;
55756;SDS011;41676;44.610;44.078;2023-07-31T07:43:23;12.50;;;2.67;;
55756;SDS011;41676;44.610;44.078;2023-07-31T07:48:23;4.50;;;1.80;;
55756;SDS011;41676;44.610;44.078;2023-07-31T07:53:25;11.20;;;2.13;;
55756;SDS011;41676;44.610;44.078;2023-07-31T07:58:26;14.55;;;2.50;;
55756;SDS011;41676;44.610;44.078;2023-07-31T08:03:27;5.70;;;1.83;;
55756;SDS011;41676;44.610;44.078;2023-07-31T08:08:28;10.05;;;1.92;;
55756;SDS011;41676;44.610;44.078;2023-07-31T08:13:29;3.85;;;1.52;;
55756;SDS011;41676;44.610;44.078;2023-07-31T08:18:30;5.38;;;1.98;;
55756;SDS011;41676;44.610;44.078;2023-07-31T08:23:32;5.22;;;1.80;;
55756;SDS011;41676;44.610;44.078;2023-07-31T08:28:33;5.63;;;1.95;;
55756;SDS011;41676;44.610;44.078;2023-07-31T08:33:35;10.33;;;2.10;;
55756;SDS011;41676;44.610;44.078;2023-07-31T08:38:35;8.32;;;1.90;;
55756;SDS011;41676;44.610;44.078;2023-07-31T08:43:36;5.95;;;1.80;;
55756;SDS011;41676;44.610;44.078;2023-07-31T08:48:38;22.87;;;2.80;;
55756;SDS011;41676;44.610;44.078;2023-07-31T08:53:40;5.68;;;1.83;;
55756;SDS011;41676;44.610;44.078;2023-07-31T08:58:41;12.55;;;2.10;;
55756;SDS011;41676;44.610;44.078;2023-07-31T09:03:43;6.72;;;1.73;;
55756;SDS011;41676;44.610;44.078;2023-07-31T09:08:45;8.90;;;2.30;;
55756;SDS011;41676;44.610;44.078;2023-07-31T09:13:46;5.95;;;2.25;;
55756;SDS011;41676;44.610;44.078;2023-07-31T09:18:54;3.53;;;1.70;;
55756;SDS011;41676;44.610;44.078;2023-07-31T09:23:57;6.00;;;1.88;;
55756;SDS011;41676;44.610;44.078;2023-07-31T09:28:58;4.60;;;1.75;;
55756;SDS011;41676;44.610;44.078;2023-07-31T09:34:00;5.63;;;1.67;;
55756;SDS011;41676;44.610;44.078;2023-07-31T09:39:04;10.27;;;2.40;;
55756;SDS011;41676;44.610;44.078;2023-07-31T09:44:04;6.05;;;2.50;;
55756;SDS011;41676;44.610;44.078;2023-07-31T09:49:06;10.93;;;2.50;;
55756;SDS011;41676;44.610;44.078;2023-07-31T09:54:12;3.67;;;1.80;;
55756;SDS011;41676;44.610;44.078;2023-07-31T09:59:20;4.38;;;1.90;;
55756;SDS011;41676;44.610;44.078;2023-07-31T10:04:20;8.52;;;2.00;;
55756;SDS011;41676;44.610;44.078;2023-07-31T10:09:27;5.88;;;1.83;;
55756;SDS011;41676;44.610;44.078;2023-07-31T10:14:31;7.95;;;2.53;;
55756;SDS011;41676;44.610;44.078;2023-07-31T10:19:33;7.22;;;2.00;;
55756;SDS011;41676;44.610;44.078;2023-07-31T10:24:36;3.53;;;1.75;;
55756;SDS011;41676;44.610;44.078;2023-07-31T10:29:38;11.57;;;2.10;;
55756;SDS011;41676;44.610;44.078;2023-07-31T10:34:42;20.60;;;2.30;;
55756;SDS011;41676;44.610;44.078;2023-07-31T10:39:43;8.73;;;1.90;;
55756;SDS011;41676;44.610;44.078;2023-07-31T10:44:44;6.03;;;2.30;;
55756;SDS011;41676;44.610;44.078;2023-07-31T10:49:47;5.68;;;2.05;;
55756;SDS011;41676;44.610;44.078;2023-07-31T10:54:49;7.88;;;2.05;;
55756;SDS011;41676;44.610;44.078;2023-07-31T10:59:50;5.32;;;2.08;;
55756;SDS011;41676;44.610;44.078;2023-07-31T11:05:09;2.67;;;1.70;;
55756;SDS011;41676;44.610;44.078;2023-07-31T11:10:10;6.65;;;2.22;;
55756;SDS011;41676;44.610;44.078;2023-07-31T11:15:11;6.35;;;2.45;;
55756;SDS011;41676;44.610;44.078;2023-07-31T11:20:12;23.20;;;2.65;;
55756;SDS011;41676;44.610;44.078;2023-07-31T11:25:14;7.07;;;2.33;;
55756;SDS011;41676;44.610;44.078;2023-07-31T11:30:15;4.50;;;2.10;;
55756;SDS011;41676;44.610;44.078;2023-07-31T11:35:19;6.72;;;2.85;;
55756;SDS011;41676;44.610;44.078;2023-07-31T11:40:20;7.25;;;2.13;;
55756;SDS011;41676;44.610;44.078;2023-07-31T11:45:21;10.15;;;2.85;;
55756;SDS011;41676;44.610;44.078;2023-07-31T11:50:24;11.93;;;2.20;;
55756;SDS011;41676;44.610;44.078;2023-07-31T11:55:26;4.38;;;2.30;;
55756;SDS011;41676;44.610;44.078;2023-07-31T12:00:27;4.50;;;2.10;;
55756;SDS011;41676;44.610;44.078;2023-07-31T12:05:28;11.30;;;2.63;;
55756;SDS011;41676;44.610;44.078;2023-07-31T12:10:30;4.10;;;2.22;;
55756;SDS011;41676;44.610;44.078;2023-07-31T12:15:33;3.47;;;2.47;;
55756;SDS011;41676;44.610;44.078;2023-07-31T12:20:34;5.47;;;2.10;;
55756;SDS011;41676;44.610;44.078;2023-07-31T12:25:35;5.35;;;2.38;;
55756;SDS011;41676;44.610;44.078;2023-07-31T12:30:36;6.65;;;2.13;;
55756;SDS011;41676;44.610;44.078;2023-07-31T12:35:38;7.35;;;2.78;;
55756;SDS011;41676;44.610;44.078;2023-07-31T12:40:42;5.38;;;2.30;;
55756;SDS011;41676;44.610;44.078;2023-07-31T12:45:42;8.18;;;2.55;;
55756;SDS011;41676;44.610;44.078;2023-07-31T12:50:43;5.78;;;2.50;;
55756;SDS011;41676;44.610;44.078;2023-07-31T12:55:44;8.85;;;2.60;;
55756;SDS011;41676;44.610;44.078;2023-07-31T13:00:45;10.10;;;2.47;;
55756;SDS011;41676;44.610;44.078;2023-07-31T13:05:46;5.45;;;2.85;;
55756;SDS011;41676;44.610;44.078;2023-07-31T13:10:46;9.38;;;5.50;;
55756;SDS011;41676;44.610;44.078;2023-07-31T13:15:47;33.75;;;19.65;;
55756;SDS011;41676;44.610;44.078;2023-07-31T13:20:48;14.05;;;7.35;;
55756;SDS011;41676;44.610;44.078;2023-07-31T13:25:49;10.60;;;4.82;;
55756;SDS011;41676;44.610;44.078;2023-07-31T13:30:49;18.75;;;10.85;;
55756;SDS011;41676;44.610;44.078;2023-07-31T13:35:50;35.45;;;5.82;;
55756;SDS011;41676;44.610;44.078;2023-07-31T13:40:51;7.95;;;4.00;;
55756;SDS011;41676;44.610;44.078;2023-07-31T13:45:52;8.95;;;3.75;;
55756;SDS011;41676;44.610;44.078;2023-07-31T13:50:52;7.03;;;2.78;;
55756;SDS011;41676;44.610;44.078;2023-07-31T13:55:53;7.22;;;2.70;;
55756;SDS011;41676;44.610;44.078;2023-07-31T14:00:54;8.60;;;2.63;;
55756;SDS011;41676;44.610;44.078;2023-07-31T14:05:55;11.98;;;2.80;;
55756;SDS011;41676;44.610;44.078;2023-07-31T14:10:56;6.60;;;3.10;;
55756;SDS011;41676;44.610;44.078;2023-07-31T14:15:57;14.07;;;2.97;;
55756;SDS011;41676;44.610;44.078;2023-07-31T14:20:57;12.43;;;3.17;;
55756;SDS011;41676;44.610;44.078;2023-07-31T14:25:58;87.20;;;7.35;;
55756;SDS011;41676;44.610;44.078;2023-07-31T14:30:59;8.18;;;2.83;;
55756;SDS011;41676;44.610;44.078;2023-07-31T14:36:00;19.48;;;3.08;;
55756;SDS011;41676;44.610;44.078;2023-07-31T14:41:01;14.82;;;3.22;;
55756;SDS011;41676;44.610;44.078;2023-07-31T14:46:02;8.32;;;2.63;;
55756;SDS011;41676;44.610;44.078;2023-07-31T14:51:02;8.30;;;2.80;;
55756;SDS011;41676;44.610;44.078;2023-07-31T14:56:03;42.83;;;4.28;;
55756;SDS011;41676;44.610;44.078;2023-07-31T15:01:04;10.48;;;3.22;;
55756;SDS011;41676;44.610;44.078;2023-07-31T15:06:05;6.47;;;2.92;;
55756;SDS011;41676;44.610;44.078;2023-07-31T15:16:09;8.25;;;2.92;;
55756;SDS011;41676;44.610;44.078;2023-07-31T15:21:10;6.93;;;2.72;;
55756;SDS011;41676;44.610;44.078;2023-07-31T15:26:11;28.20;;;3.22;;
55756;SDS011;41676;44.610;44.078;2023-07-31T15:31:12;8.65;;;2.67;;
55756;SDS011;41676;44.610;44.078;2023-07-31T15:36:13;11.98;;;2.78;;
55756;SDS011;41676;44.610;44.078;2023-07-31T15:41:14;17.30;;;2.95;;
55756;SDS011;41676;44.610;44.078;2023-07-31T15:46:16;26.05;;;3.08;;
55756;SDS011;41676;44.610;44.078;2023-07-31T15:51:17;12.40;;;3.20;;
55756;SDS011;41676;44.610;44.078;2023-07-31T15:56:18;16.08;;;2.58;;
55756;SDS011;41676;44.610;44.078;2023-07-31T16:01:19;15.40;;;2.53;;
55756;SDS011;41676;44.610;44.078;2023-07-31T16:06:20;7.90;;;2.42;;
55756;SDS011;41676;44.610;44.078;2023-07-31T16:11:21;12.98;;;2.60;;
55756;SDS011;41676;44.610;44.078;2023-07-31T16:16:22;12.07;;;2.42;;
55756;SDS011;41676;44.610;44.078;2023-07-31T16:21:23;9.35;;;2.35;;
55756;SDS011;41676;44.610;44.078;2023-07-31T16:26:23;9.38;;;2.10;;
55756;SDS011;41676;44.610;44.078;2023-07-31T16:31:25;16.55;;;2.35;;
55756;SDS011;41676;44.610;44.078;2023-07-31T16:36:25;8.48;;;2.50;;
55756;SDS011;41676;44.610;44.078;2023-07-31T16:41:26;7.07;;;2.38;;
55756;SDS011;41676;44.610;44.078;2023-07-31T16:46:27;8.55;;;2.30;;
55756;SDS011;41676;44.610;44.078;2023-07-31T16:51:28;28.88;;;3.20;;
55756;SDS011;41676;44.610;44.078;2023-07-31T16:56:29;14.27;;;2.72;;
55756;SDS011;41676;44.610;44.078;2023-07-31T17:01:30;11.65;;;2.15;;
55756;SDS011;41676;44.610;44.078;2023-07-31T17:06:33;9.23;;;2.08;;
55756;SDS011;41676;44.610;44.078;2023-07-31T17:11:35;15.93;;;2.72;;
55756;SDS011;41676;44.610;44.078;2023-07-31T17:16:36;13.95;;;2.65;;
55756;SDS011;41676;44.610;44.078;2023-07-31T17:21:37;8.40;;;2.55;;
55756;SDS011;41676;44.610;44.078;2023-07-31T17:26:37;6.95;;;2.25;;
55756;SDS011;41676;44.610;44.078;2023-07-31T17:31:38;6.00;;;2.33;;
55756;SDS011;41676;44.610;44.078;2023-07-31T17:36:41;8.90;;;2.30;;
55756;SDS011;41676;44.610;44.078;2023-07-31T17:41:42;5.90;;;2.10;;
55756;SDS011;41676;44.610;44.078;2023-07-31T17:46:43;6.07;;;2.33;;
55756;SDS011;41676;44.610;44.078;2023-07-31T17:51:43;5.65;;;2.20;;
55756;SDS011;41676;44.610;44.078;2023-07-31T17:56:44;9.32;;;2.33;;
55756;SDS011;41676;44.610;44.078;2023-07-31T18:01:45;11.23;;;2.20;;
55756;SDS011;41676;44.610;44.078;2023-07-31T18:06:46;6.22;;;2.25;;
55756;SDS011;41676;44.610;44.078;2023-07-31T18:11:47;6.80;;;2.38;;
55756;SDS011;41676;44.610;44.078;2023-07-31T18:16:47;7.90;;;1.90;;
55756;SDS011;41676;44.610;44.078;2023-07-31T18:21:48;8.45;;;1.95;;
55756;SDS011;41676;44.610;44.078;2023-07-31T18:26:49;6.70;;;2.00;;
55756;SDS011;41676;44.610;44.078;2023-07-31T18:31:50;12.23;;;2.38;;
55756;SDS011;41676;44.610;44.078;2023-07-31T18:36:51;9.80;;;2.22;;
55756;SDS011;41676;44.610;44.078;2023-07-31T18:41:51;10.35;;;2.53;;
55756;SDS011;41676;44.610;44.078;2023-07-31T18:46:52;10.23;;;2.63;;
55756;SDS011;41676;44.610;44.078;2023-07-31T18:51:53;8.20;;;2.17;;
55756;SDS011;41676;44.610;44.078;2023-07-31T18:56:54;5.18;;;2.17;;
55756;SDS011;41676;44.610;44.078;2023-07-31T19:01:54;6.63;;;2.40;;
55756;SDS011;41676;44.610;44.078;2023-07-31T19:06:55;8.27;;;2.10;;
55756;SDS011;41676;44.610;44.078;2023-07-31T19:11:56;6.22;;;2.47;;
55756;SDS011;41676;44.610;44.078;2023-07-31T19:16:57;5.90;;;2.20;;
55756;SDS011;41676;44.610;44.078;2023-07-31T19:21:58;4.05;;;2.20;;
55756;SDS011;41676;44.610;44.078;2023-07-31T19:26:59;6.55;;;2.78;;
55756;SDS011;41676;44.610;44.078;2023-07-31T19:31:59;7.45;;;2.53;;
55756;SDS011;41676;44.610;44.078;2023-07-31T19:37:00;7.90;;;2.63;;
55756;SDS011;41676;44.610;44.078;2023-07-31T19:42:01;20.25;;;2.90;;
55756;SDS011;41676;44.610;44.078;2023-07-31T19:47:02;5.40;;;2.28;;
55756;SDS011;41676;44.610;44.078;2023-07-31T19:52:03;5.80;;;2.47;;
55756;SDS011;41676;44.610;44.078;2023-07-31T19:57:04;9.35;;;2.63;;
55756;SDS011;41676;44.610;44.078;2023-07-31T20:02:05;11.55;;;2.55;;
55756;SDS011;41676;44.610;44.078;2023-07-31T20:07:07;10.20;;;2.63;;
55756;SDS011;41676;44.610;44.078;2023-07-31T20:12:08;9.10;;;2.22;;
55756;SDS011;41676;44.610;44.078;2023-07-31T20:17:09;9.05;;;2.78;;
55756;SDS011;41676;44.610;44.078;2023-07-31T20:22:10;5.43;;;2.58;;
55756;SDS011;41676;44.610;44.078;2023-07-31T20:27:10;5.18;;;2.47;;
55756;SDS011;41676;44.610;44.078;2023-07-31T20:32:11;5.13;;;2.67;;
55756;SDS011;41676;44.610;44.078;2023-07-31T20:37:12;5.72;;;2.33;;
55756;SDS011;41676;44.610;44.078;2023-07-31T20:42:13;6.68;;;2.40;;
55756;SDS011;41676;44.610;44.078;2023-07-31T20:47:15;9.00;;;2.40;;
55756;SDS011;41676;44.610;44.078;2023-07-31T20:52:16;4.55;;;2.13;;
55756;SDS011;41676;44.610;44.078;2023-07-31T20:57:17;7.55;;;2.40;;
55756;SDS011;41676;44.610;44.078;2023-07-31T21:02:18;11.77;;;2.20;;
55756;SDS011;41676;44.610;44.078;2023-07-31T21:07:18;7.72;;;2.45;;
55756;SDS011;41676;44.610;44.078;2023-07-31T21:12:19;9.15;;;2.17;;
55756;SDS011;41676;44.610;44.078;2023-07-31T21:17:20;8.60;;;2.90;;
55756;SDS011;41676;44.610;44.078;2023-07-31T21:22:21;5.82;;;2.00;;
55756;SDS011;41676;44.610;44.078;2023-07-31T21:27:21;7.13;;;2.10;;
55756;SDS011;41676;44.610;44.078;2023-07-31T21:37:25;10.63;;;2.20;;
55756;SDS011;41676;44.610;44.078;2023-07-31T21:42:26;4.90;;;1.95;;
55756;SDS011;41676;44.610;44.078;2023-07-31T21:47:27;5.70;;;2.40;;
55756;SDS011;41676;44.610;44.078;2023-07-31T21:52:28;10.77;;;2.15;;
55756;SDS011;41676;44.610;44.078;2023-07-31T21:57:28;5.72;;;2.15;;
55756;SDS011;41676;44.610;44.078;2023-07-31T22:02:29;8.15;;;2.17;;
55756;SDS011;41676;44.610;44.078;2023-07-31T22:07:30;8.73;;;2.55;;
55756;SDS011;41676;44.610;44.078;2023-07-31T22:12:31;6.35;;;2.03;;
55756;SDS011;41676;44.610;44.078;2023-07-31T22:17:32;7.15;;;1.95;;
55756;SDS011;41676;44.610;44.078;2023-07-31T22:22:33;8.18;;;2.47;;
55756;SDS011;41676;44.610;44.078;2023-07-31T22:27:34;5.35;;;2.13;;
55756;SDS011;41676;44.610;44.078;2023-07-31T22:32:35;4.10;;;1.85;;
55756;SDS011;41676;44.610;44.078;2023-07-31T22:37:36;5.28;;;1.95;;
55756;SDS011;41676;44.610;44.078;2023-07-31T22:42:37;3.08;;;1.90;;
55756;SDS011;41676;44.610;44.078;2023-07-31T22:47:37;3.35;;;1.80;;
55756;SDS011;41676;44.610;44.078;2023-07-31T22:52:40;6.88;;;1.83;;
55756;SDS011;41676;44.610;44.078;2023-07-31T22:57:41;7.60;;;2.03;;
55756;SDS011;41676;44.610;44.078;2023-07-31T23:02:41;6.55;;;2.08;;
55756;SDS011;41676;44.610;44.078;2023-07-31T23:07:42;6.35;;;1.92;;
55756;SDS011;41676;44.610;44.078;2023-07-31T23:12:43;6.28;;;1.63;;
55756;SDS011;41676;44.610;44.078;2023-07-31T23:17:44;7.38;;;1.85;;
55756;SDS011;41676;44.610;44.078;2023-07-31T23:22:44;7.13;;;1.90;;
55756;SDS011;41676;44.610;44.078;2023-07-31T23:27:45;6.70;;;1.95;;
55756;SDS011;41676;44.610;44.078;2023-07-31T23:32:46;3.78;;;1.90;;
55756;SDS011;41676;44.610;44.078;2023-07-31T23:37:47;16.33;;;1.95;;
55756;SDS011;41676;44.610;44.078;2023-07-31T23:42:47;8.93;;;2.10;;
55756;SDS011;41676;44.610;44.078;2023-07-31T23:47:48;10.98;;;2.15;;
55756;SDS011;41676;44.610;44.078;2023-07-31T23:52:49;3.25;;;1.70;;
55756;SDS011;41676;44.610;44.078;2023-07-31T23:57:50;6.15;;;1.70;;
